Time;durP1;ratioP1;P1;durP2;ratioP2;P2;SDS_P1;SDS_P2;PMS_P1;PMS_P2;Temp;Humidity;BMP_temperature;BMP_pressure;BME280_temperature;BME280_humidity;BME280_pressure;Samples;Min_cycle;Max_cycle;Signal;HPM_P1;HPM_P2
2021/01/09 00:00:46;;;;;;;36.00;18.52;;;;;;;1.29;100.00;100806.81;5014011;28;20054;-62
2021/01/09 00:03:30;;;;;;;36.33;18.23;;;;;;;1.33;100.00;100805.75;5013714;28;20521;-62
2021/01/09 00:06:14;;;;;;;35.17;19.13;;;;;;;1.29;100.00;100805.97;5014118;28;20044;-62
2021/01/09 00:08:58;;;;;;;33.42;17.50;;;;;;;1.29;100.00;100801.56;5013858;28;20044;-62
2021/01/09 00:11:41;;;;;;;32.83;17.75;;;;;;;1.34;100.00;100807.44;5012927;28;20557;-63
2021/01/09 00:14:26;;;;;;;37.42;17.90;;;;;;;1.37;100.00;100803.81;5013485;28;20129;-62
2021/01/09 00:17:09;;;;;;;33.95;17.48;;;;;;;1.36;100.00;100807.38;5013528;28;20053;-63
2021/01/09 00:19:53;;;;;;;34.28;18.38;;;;;;;1.35;100.00;100806.50;5012531;28;20057;-63
2021/01/09 00:22:37;;;;;;;;;;;;;;;1.34;100.00;100804.81;5013906;28;20092;-62
2021/01/09 00:25:22;;;;;;;33.20;18.23;;;;;;;1.33;100.00;100813.63;5013695;28;20000;-63
2021/01/09 00:28:06;;;;;;;30.40;16.80;;;;;;;1.32;100.00;100811.91;5013318;28;20133;-62
2021/01/09 00:30:50;;;;;;;38.10;19.38;;;;;;;1.30;100.00;100813.78;5013641;28;20072;-63
2021/01/09 00:33:34;;;;;;;34.60;17.88;;;;;;;1.31;100.00;100810.22;5012357;28;20052;-63
2021/01/09 00:36:18;;;;;;;35.15;18.08;;;;;;;1.31;100.00;100807.59;5013415;28;20045;-63
2021/01/09 00:39:04;;;;;;;30.77;17.23;;;;;;;1.34;100.00;100812.69;5013337;28;20068;-62
2021/01/09 00:41:48;;;;;;;34.75;17.55;;;;;;;1.35;100.00;100811.75;5012580;28;20053;-63
2021/01/09 00:44:32;;;;;;;37.17;18.20;;;;;;;1.39;100.00;100813.34;5013223;28;20045;-63
2021/01/09 00:47:17;;;;;;;31.60;17.60;;;;;;;1.37;100.00;100809.91;5012589;28;20103;-62
2021/01/09 00:50:01;;;;;;;33.60;18.63;;;;;;;1.32;100.00;100809.28;5013258;28;20121;-63
2021/01/09 00:52:45;;;;;;;32.85;17.40;;;;;;;1.32;100.00;100811.91;5013471;28;20104;-63
2021/01/09 00:55:29;;;;;;;30.85;17.23;;;;;;;1.35;100.00;100813.56;5013133;28;20053;-62
2021/01/09 00:58:13;;;;;;;33.45;17.45;;;;;;;1.36;100.00;100816.09;5012071;28;20104;-62
2021/01/09 01:00:57;;;;;;;29.27;16.67;;;;;;;1.34;100.00;100820.56;5013371;28;20053;-63
2021/01/09 01:03:42;;;;;;;29.98;16.70;;;;;;;1.35;100.00;100822.28;5012410;28;20053;-62
2021/01/09 01:06:26;;;;;;;30.67;17.63;;;;;;;1.35;100.00;100817.03;5013114;28;20080;-64
2021/01/09 01:09:10;;;;;;;34.63;17.95;;;;;;;1.40;100.00;100822.06;5012476;28;20072;-63
2021/01/09 01:11:54;;;;;;;36.45;17.77;;;;;;;1.34;100.00;100823.19;5013291;28;20127;-63
2021/01/09 01:14:38;;;;;;;32.88;18.00;;;;;;;1.35;100.00;100822.28;4998367;28;20541;-63
2021/01/09 01:17:22;;;;;;;31.42;17.42;;;;;;;1.35;100.00;100827.53;5012709;28;20107;-63
2021/01/09 01:20:07;;;;;;;35.95;18.58;;;;;;;1.35;100.00;100817.03;5013027;28;20525;-62
2021/01/09 01:22:51;;;;;;;35.38;18.75;;;;;;;1.36;100.00;100831.84;5012920;28;20089;-62
2021/01/09 01:25:37;;;;;;;34.10;17.63;;;;;;;1.35;100.00;100827.53;5013190;28;20570;-63
2021/01/09 01:28:22;;;;;;;34.65;19.30;;;;;;;1.34;100.00;100835.50;5013036;28;20048;-61
2021/01/09 01:31:06;;;;;;;31.33;17.17;;;;;;;1.29;100.00;100827.84;5012811;28;20103;-63
2021/01/09 01:33:50;;;;;;;33.17;17.98;;;;;;;1.28;100.00;100831.41;4998200;28;20442;-63
2021/01/09 01:36:34;;;;;;;36.08;18.23;;;;;;;1.31;100.00;100833.88;5015524;28;20053;-64
2021/01/09 01:39:18;;;;;;;;;;;;;;;1.38;100.00;100840.53;5015786;28;20056;-63
2021/01/09 01:42:02;;;;;;;29.58;16.90;;;;;;;1.45;100.00;100835.84;5001645;28;19921;-63
2021/01/09 01:44:46;;;;;;;33.03;17.45;;;;;;;1.42;100.00;100844.72;5016493;28;20110;-62
2021/01/09 01:47:32;;;;;;;31.10;18.13;;;;;;;1.44;100.00;100839.38;5015252;28;20548;-62
2021/01/09 01:50:16;;;;;;;34.47;18.95;;;;;;;1.37;100.00;100838.81;5016368;28;20068;-62
2021/01/09 01:53:00;;;;;;;29.70;17.73;;;;;;;1.37;100.00;100836.19;5016399;28;20051;-63
2021/01/09 01:55:45;;;;;;;31.17;17.38;;;;;;;1.36;100.00;100838.91;5001212;28;20474;-62
2021/01/09 01:58:29;;;;;;;29.00;17.25;;;;;;;1.35;100.00;100835.41;5016264;28;20414;-63
2021/01/09 02:01:16;;;;;;;;;;;;;;;1.42;100.00;100838.59;5001798;28;20061;-62
2021/01/09 02:04:00;;;;;;;31.33;16.30;;;;;;;1.38;100.00;100831.78;5015873;28;19921;-63
2021/01/09 02:06:45;;;;;;;31.98;17.55;;;;;;;1.34;100.00;100830.25;5015749;28;20087;-62
2021/01/09 02:09:34;;;;;;;31.30;17.95;;;;;;;1.40;100.00;100840.44;5015014;28;20053;-63
2021/01/09 02:12:22;;;;;;;32.90;17.60;;;;;;;1.33;100.00;100845.13;5014695;28;20087;-63
2021/01/09 02:15:06;;;;;;;30.75;18.00;;;;;;;1.30;100.00;100850.56;5000757;28;20053;-62
2021/01/09 02:17:51;;;;;;;25.98;15.50;;;;;;;1.29;100.00;100851.47;5014499;28;20107;-63
2021/01/09 02:20:36;;;;;;;31.42;17.75;;;;;;;1.28;100.00;100849.78;5014568;28;20044;-63
2021/01/09 02:23:25;;;;;;;31.42;17.42;;;;;;;1.29;100.00;100843.59;5015518;28;20053;-63
2021/01/09 02:26:09;;;;;;;31.98;17.83;;;;;;;1.27;100.00;100845.41;5014575;28;20049;-63
2021/01/09 02:28:53;;;;;;;31.50;18.02;;;;;;;1.28;100.00;100847.16;5014497;28;20049;-63
2021/01/09 02:31:45;;;;;;;32.20;16.85;;;;;;;1.30;100.00;100840.03;5000868;28;20104;-63
2021/01/09 02:34:36;;;;;;;35.63;18.95;;;;;;;1.33;100.00;100850.41;5014432;28;20100;-63
2021/01/09 02:37:21;;;;;;;32.88;18.30;;;;;;;1.35;100.00;100848.53;5014202;28;20100;-63
2021/01/09 02:40:06;;;;;;;32.58;18.52;;;;;;;1.38;100.00;100847.56;5014360;28;20048;-63
2021/01/09 02:42:50;;;;;;;32.30;17.52;;;;;;;1.39;100.00;100850.13;5014505;28;20557;-62
2021/01/09 02:45:34;;;;;;;31.20;17.33;;;;;;;1.42;100.00;100857.84;5015034;28;20081;-63
2021/01/09 02:48:19;;;;;;;32.55;17.73;;;;;;;1.45;100.00;100855.06;5014925;28;20076;-63
2021/01/09 02:51:02;;;;;;;27.95;15.43;;;;;;;1.47;100.00;100857.63;5015005;28;20048;-63
2021/01/09 02:53:47;;;;;;;31.02;16.73;;;;;;;1.50;100.00;100858.34;5014948;28;20556;-63
2021/01/09 02:56:31;;;;;;;33.28;17.50;;;;;;;1.50;100.00;100862.72;5013880;28;20061;-63
2021/01/09 02:59:15;;;;;;;31.60;17.38;;;;;;;1.49;100.00;100863.66;5015123;28;20501;-63
2021/01/09 03:01:58;;;;;;;26.58;15.23;;;;;;;1.48;100.00;100865.44;5015032;28;20080;-62
2021/01/09 03:04:43;;;;;;;29.23;16.55;;;;;;;1.49;100.00;100864.53;5014045;28;20406;-63
2021/01/09 03:07:27;;;;;;;27.65;15.15;;;;;;;1.48;100.00;100860.19;5014898;28;20088;-63
2021/01/09 03:10:11;;;;;;;31.75;18.42;;;;;;;1.46;100.00;100859.38;5014973;28;20100;-63
2021/01/09 03:12:54;;;;;;;33.97;17.17;;;;;;;1.50;100.00;100867.97;5013890;28;20088;-63
2021/01/09 03:15:41;;;;;;;28.90;16.60;;;;;;;1.49;100.00;100871.53;5014738;28;20423;-63
2021/01/09 03:18:25;;;;;;;28.48;17.00;;;;;;;1.48;100.00;100873.31;5014331;28;20115;-63
2021/01/09 03:21:09;;;;;;;30.73;16.70;;;;;;;1.48;100.00;100870.69;5014734;28;20053;-63
2021/01/09 03:23:53;;;;;;;29.33;16.20;;;;;;;1.47;100.00;100876.84;5013971;28;20077;-63
2021/01/09 03:26:37;;;;;;;27.98;15.85;;;;;;;1.49;100.00;100877.66;5014299;28;20041;-62
2021/01/09 03:29:21;;;;;;;30.92;16.83;;;;;;;1.45;100.00;100876.06;5014616;28;20048;-63
2021/01/09 03:32:05;;;;;;;30.50;16.48;;;;;;;1.45;100.00;100872.63;5014543;28;20080;-63
2021/01/09 03:34:49;;;;;;;31.40;16.92;;;;;;;1.35;100.00;100869.56;5013139;28;20056;-62
2021/01/09 03:37:33;;;;;;;31.23;16.30;;;;;;;1.32;100.00;100869.72;5014216;28;20084;-63
2021/01/09 03:40:17;;;;;;;29.50;17.20;;;;;;;1.33;100.00;100873.16;5014370;28;20120;-62
2021/01/09 03:43:02;;;;;;;32.88;16.75;;;;;;;1.29;100.00;100869.00;5014349;28;20096;-62
2021/01/09 03:45:45;;;;;;;37.53;17.73;;;;;;;1.21;100.00;100877.25;5013334;28;20100;-63
2021/01/09 03:48:29;;;;;;;;;;;;;;;1.15;100.00;100871.44;5014464;28;20048;-63
2021/01/09 03:51:13;;;;;;;32.13;16.80;;;;;;;1.11;100.00;100870.72;5013988;28;20019;-62
2021/01/09 03:53:57;;;;;;;27.38;16.10;;;;;;;1.06;100.00;100871.84;5012916;28;20831;-63
2021/01/09 03:56:41;;;;;;;31.20;16.55;;;;;;;1.01;100.00;100872.06;5012715;28;20069;-63
2021/01/09 03:59:25;;;;;;;32.67;15.88;;;;;;;0.93;100.00;100874.16;5012284;28;20061;-63
2021/01/09 04:02:09;;;;;;;30.85;15.85;;;;;;;0.88;100.00;100873.53;5013797;28;20052;-63
2021/01/09 04:04:53;;;;;;;28.55;15.73;;;;;;;0.82;100.00;100876.44;5012745;28;20044;-63
2021/01/09 04:07:37;;;;;;;32.70;17.20;;;;;;;0.77;100.00;100874.94;5013871;28;20076;-63
2021/01/09 04:10:21;;;;;;;30.73;17.45;;;;;;;0.71;100.00;100883.94;5013962;28;20123;-63
2021/01/09 04:13:05;;;;;;;30.38;16.67;;;;;;;0.65;100.00;100883.34;5012911;28;20111;-62
2021/01/09 04:15:49;;;;;;;29.48;16.88;;;;;;;0.57;100.00;100888.94;5013525;28;20099;-63
2021/01/09 04:18:34;;;;;;;31.60;16.80;;;;;;;0.51;100.00;100883.94;5243210;23;20065;-65
2021/01/09 04:21:17;;;;;;;34.17;16.48;;;;;;;0.47;100.00;100887.63;5033539;28;20216;-65
2021/01/09 04:24:01;;;;;;;31.25;16.45;;;;;;;0.43;100.00;100885.22;5032521;28;20107;-62
2021/01/09 04:26:51;;;;;;;31.70;15.45;;;;;;;0.39;100.00;100886.25;5018463;28;20053;-66
2021/01/09 04:29:35;;;;;;;28.08;15.43;;;;;;;0.34;100.00;100886.44;5033436;28;20075;-66
2021/01/09 04:32:19;;;;;;;31.33;16.60;;;;;;;0.32;100.00;100882.19;5033273;28;20052;-65
2021/01/09 04:35:05;;;;;;;;;;;;;;;0.27;100.00;100892.88;5032601;28;20103;-66
2021/01/09 04:37:49;;;;;;;32.33;16.83;;;;;;;0.22;100.00;100892.22;5032969;28;19920;-66
2021/01/09 04:40:35;;;;;;;31.13;16.08;;;;;;;0.19;100.00;100897.59;5033352;28;20130;-66
2021/01/09 04:43:19;;;;;;;35.08;18.40;;;;;;;0.16;100.00;100896.88;5032286;28;20049;-65
2021/01/09 04:46:03;;;;;;;;;;;;;;;0.11;100.00;100889.19;5032747;28;20088;-65
2021/01/09 04:48:47;;;;;;;35.20;17.77;;;;;;;0.08;100.00;100899.81;5031994;28;19982;-66
2021/01/09 04:51:31;;;;;;;30.67;15.50;;;;;;;0.07;100.00;100892.00;5033035;28;20123;-65
2021/01/09 04:54:17;;;;;;;32.15;15.32;;;;;;;0.07;100.00;100897.25;5031974;28;20127;-66
2021/01/09 04:57:01;;;;;;;31.95;16.38;;;;;;;0.06;100.00;100891.16;5033104;28;20049;-65
2021/01/09 04:59:46;;;;;;;29.17;16.13;;;;;;;0.06;100.00;100904.28;5032957;28;20048;-66
2021/01/09 05:02:30;;;;;;;34.67;17.48;;;;;;;0.06;100.00;100896.41;5033022;28;20092;-66
2021/01/09 05:05:14;;;;;;;32.17;16.40;;;;;;;0.07;100.00;100892.88;5031873;28;20180;-66
2021/01/09 05:07:59;;;;;;;;;;;;;;;0.09;100.00;100893.66;5018173;28;20072;-66
2021/01/09 05:10:43;;;;;;;34.03;17.40;;;;;;;0.12;100.00;100897.91;5034954;28;19970;-66
2021/01/09 05:13:27;;;;;;;33.22;17.42;;;;;;;0.12;100.00;100896.13;5036624;28;20468;-66
2021/01/09 05:16:12;;;;;;;31.65;16.85;;;;;;;0.11;100.00;100904.91;5035620;28;20107;-66
2021/01/09 05:18:56;;;;;;;32.50;17.83;;;;;;;0.10;100.00;100903.22;5035318;28;20087;-66
2021/01/09 05:21:40;;;;;;;40.28;19.77;;;;;;;0.08;100.00;100907.69;5036778;28;20131;-66
2021/01/09 05:24:25;;;;;;;33.80;17.70;;;;;;;0.05;100.00;100912.19;5035473;28;20048;-66
2021/01/09 05:27:09;;;;;;;32.83;18.05;;;;;;;0.00;100.00;100912.38;5035519;28;20520;-66
2021/01/09 05:29:53;;;;;;;36.72;17.50;;;;;;;-0.06;100.00;100904.75;5036356;28;20517;-66
2021/01/09 05:32:37;;;;;;;35.50;17.98;;;;;;;-0.09;100.00;100911.91;5021297;28;20095;-66
2021/01/09 05:35:21;;;;;;;34.03;17.73;;;;;;;-0.14;100.00;100908.59;5035253;28;20045;-66
2021/01/09 05:38:06;;;;;;;31.08;17.50;;;;;;;-0.19;100.00;100917.56;5036096;28;20103;-65
2021/01/09 05:40:49;;;;;;;34.67;18.25;;;;;;;-0.27;100.00;100911.78;5035507;28;20099;-66
2021/01/09 05:43:33;;;;;;;;;;;;;;;-0.34;100.00;100910.34;5036746;28;20096;-66
2021/01/09 05:46:18;;;;;;;28.58;14.93;;;;;;;-0.42;100.00;100915.03;5035147;28;19935;-64
2021/01/09 05:49:04;;;;;;;36.13;18.15;;;;;;;-0.50;100.00;100915.31;5035196;28;20043;-66
2021/01/09 05:51:56;;;;;;;31.77;16.58;;;;;;;-0.60;100.00;100918.34;5035051;28;20045;-66
2021/01/09 05:54:39;;;;;;;34.83;17.08;;;;;;;-0.69;100.00;100922.19;5034939;28;20052;-66
2021/01/09 05:57:37;;;;;;;36.03;17.30;;;;;;;-0.76;100.00;100923.31;5035051;28;20099;-66
2021/01/09 06:00:21;;;;;;;37.30;17.40;;;;;;;-0.81;100.00;100927.03;5035145;28;20067;-66
2021/01/09 06:03:20;;;;;;;35.17;18.00;;;;;;;-0.87;100.00;100929.84;5035718;28;20509;-66
2021/01/09 06:06:23;;;;;;;35.65;18.15;;;;;;;-0.92;100.00;100937.03;5035987;28;20044;-66
2021/01/09 06:09:10;;;;;;;35.15;18.50;;;;;;;-0.98;100.00;100937.25;5034874;28;20124;-66
2021/01/09 06:11:55;;;;;;;44.75;20.02;;;;;;;-1.02;100.00;100935.66;5036136;28;20114;-66
2021/01/09 06:14:42;;;;;;;44.60;20.85;;;;;;;-1.08;100.00;100928.03;5034773;28;20107;-66
2021/01/09 06:17:26;;;;;;;48.92;21.75;;;;;;;-1.11;100.00;100938.63;5034602;28;20405;-66
2021/01/09 06:20:14;;;;;;;44.55;20.58;;;;;;;-1.14;100.00;100936.97;5020463;28;20048;-66
2021/01/09 06:22:58;;;;;;;46.88;21.85;;;;;;;-1.15;100.00;100937.03;5034843;28;20048;-66
2021/01/09 06:25:43;;;;;;;46.33;21.10;;;;;;;-1.18;100.00;100939.72;5035411;28;20041;-66
2021/01/09 06:28:32;;;;;;;45.72;21.80;;;;;;;-1.19;100.00;100940.66;5035505;28;20048;-66
2021/01/09 06:31:20;;;;;;;40.10;18.77;;;;;;;-1.21;100.00;100945.09;5034761;28;20044;-66
2021/01/09 06:34:08;;;;;;;44.88;19.52;;;;;;;-1.25;100.00;100949.56;5034361;28;20409;-66
2021/01/09 06:36:57;;;;;;;40.75;18.42;;;;;;;-1.30;100.00;100953.25;5034098;28;20134;-66
2021/01/09 06:39:42;;;;;;;43.58;21.30;;;;;;;-1.32;100.00;100952.47;5034382;28;20406;-66
2021/01/09 06:42:26;;;;;;;41.05;19.00;;;;;;;-1.37;100.00;100950.00;5033961;28;20056;-66
2021/01/09 06:45:12;;;;;;;47.03;21.30;;;;;;;-1.38;100.00;100963.13;5035182;28;20099;-66
2021/01/09 06:47:59;;;;;;;42.67;20.17;;;;;;;-1.38;100.00;100957.88;5033809;28;20052;-66
2021/01/09 06:50:44;;;;;;;38.58;18.20;;;;;;;-1.43;100.00;100958.09;5020105;28;20099;-66
2021/01/09 06:53:28;;;;;;;44.58;19.77;;;;;;;-1.47;100.00;100963.47;5034812;28;20478;-66
2021/01/09 06:56:28;;;;;;;43.63;19.88;;;;;;;-1.48;100.00;100961.72;5034820;28;20053;-65
2021/01/09 06:59:33;;;;;;;45.90;20.80;;;;;;;-1.51;100.00;100967.06;5034962;28;20407;-66
2021/01/09 07:02:24;;;;;;;44.30;20.60;;;;;;;-1.53;100.00;100958.44;5032743;28;20460;-65
2021/01/09 07:05:50;;;;;;;43.38;19.30;;;;;;;-1.54;100.00;100967.19;5033525;28;20560;-65
2021/01/09 07:08:35;;;;;;;49.35;21.65;;;;;;;-1.57;100.00;100972.53;5031116;28;20410;-65
2021/01/09 07:11:19;;;;;;;52.97;22.25;;;;;;;-1.59;100.00;100974.31;5034503;28;20129;-64
2021/01/09 07:14:13;;;;;;;46.15;20.90;;;;;;;-1.61;100.00;100966.56;5033672;28;20048;-65
2021/01/09 07:16:57;;;;;;;;;;;;;;;-1.64;100.00;100974.47;5033688;28;20139;-65
2021/01/09 07:19:42;;;;;;;46.80;20.20;;;;;;;-1.66;100.00;100972.84;5033659;28;19920;-65
2021/01/09 07:22:26;;;;;;;42.33;20.77;;;;;;;-1.66;100.00;100972.84;5033558;28;20064;-66
2021/01/09 07:25:11;;;;;;;43.05;20.20;;;;;;;-1.67;100.00;100977.19;5033476;28;20048;-65
2021/01/09 07:27:56;;;;;;;53.90;23.42;;;;;;;-1.64;100.00;100971.03;5033649;28;20068;-65
2021/01/09 07:30:41;;;;;;;45.13;21.65;;;;;;;-1.62;100.00;100967.47;5033400;28;20053;-65
2021/01/09 07:33:27;;;;;;;50.72;22.75;;;;;;;-1.58;100.00;100976.06;5033052;28;20052;-66
2021/01/09 07:36:12;;;;;;;50.45;23.40;;;;;;;-1.55;100.00;100983.78;5032928;28;20127;-66
2021/01/09 07:39:04;;;;;;;51.45;21.70;;;;;;;-1.52;100.00;100981.06;5033213;28;20142;-66
2021/01/09 07:41:48;;;;;;;49.80;22.13;;;;;;;-1.43;100.00;100985.97;5033040;28;20080;-65
2021/01/09 07:44:34;;;;;;;48.35;22.90;;;;;;;-1.39;100.00;100975.38;5033128;28;20052;-64
2021/01/09 07:47:28;;;;;;;52.00;21.70;;;;;;;-1.36;100.00;100982.25;5033700;28;20051;-64
2021/01/09 07:50:14;;;;;;;50.40;22.27;;;;;;;-1.33;100.00;100987.38;5033343;28;20048;-65
2021/01/09 07:53:07;;;;;;;47.28;21.27;;;;;;;-1.31;100.00;100986.41;5033244;28;20055;-65
2021/01/09 07:55:52;;;;;;;45.65;21.27;;;;;;;-1.28;100.00;100985.44;5032792;28;20620;-64
2021/01/09 07:58:43;;;;;;;43.33;21.42;;;;;;;-1.26;100.00;100991.50;5033833;28;20052;-64
2021/01/09 08:01:27;;;;;;;41.55;19.05;;;;;;;-1.23;100.00;101000.06;5033852;28;20087;-65
2021/01/09 08:04:11;;;;;;;;;;;;;;;-1.19;100.00;101006.03;5033268;28;20534;-64
2021/01/09 08:06:55;;;;;;;45.90;20.70;;;;;;;-1.16;100.00;101003.34;5033803;28;19998;-64
2021/01/09 08:09:39;;;;;;;44.22;20.73;;;;;;;-1.13;100.00;101011.06;5032579;28;20048;-65
2021/01/09 08:12:27;;;;;;;45.75;21.67;;;;;;;-1.06;100.00;101015.19;5032932;28;20133;-64
2021/01/09 08:15:12;;;;;;;45.75;19.95;;;;;;;-0.95;100.00;101023.53;5032766;28;20559;-66
2021/01/09 08:18:04;;;;;;;37.65;18.75;;;;;;;-0.84;100.00;101021.38;5018403;28;20115;-65
2021/01/09 08:20:49;;;;;;;38.63;17.73;;;;;;;-0.73;100.00;101027.06;5018927;28;20524;-64
2021/01/09 08:23:33;;;;;;;32.20;17.38;;;;;;;-0.62;100.00;101035.38;5033503;28;20048;-64
2021/01/09 08:26:17;;;;;;;;;;;;;;;-0.50;100.00;101029.69;5032920;28;20128;-64
2021/01/09 08:29:01;;;;;;;37.27;17.77;;;;;;;-0.43;100.00;101036.41;5033883;28;19920;-65
2021/01/09 08:31:45;;;;;;;36.60;17.73;;;;;;;-0.31;100.00;101036.78;5018589;28;20348;-64
2021/01/09 08:34:29;;;;;;;;;;;;;;;-0.18;100.00;101037.19;5032750;28;20103;-65
2021/01/09 08:37:13;;;;;;;29.45;14.00;;;;;;;-0.04;100.00;101040.16;5033077;28;19920;-66
2021/01/09 08:39:57;;;;;;;38.63;19.58;;;;;;;0.30;100.00;101043.97;5032145;28;20143;-66
2021/01/09 08:42:54;;;;;;;44.25;21.58;;;;;;;1.61;100.00;101040.00;5033337;28;20056;-66
2021/01/09 08:45:55;;;;;;;36.13;17.90;;;;;;;3.51;100.00;101038.28;5035585;28;20102;-65
2021/01/09 08:48:39;;;;;;;25.88;15.57;;;;;;;5.04;100.00;101027.69;5036113;28;20489;-65
2021/01/09 08:51:25;;;;;;;27.80;14.85;;;;;;;6.75;98.70;101035.25;5037480;28;20136;-65
2021/01/09 08:54:14;;;;;;;28.05;15.35;;;;;;;8.22;76.91;101030.16;5036274;28;20049;-66
2021/01/09 08:57:03;;;;;;;27.77;16.40;;;;;;;9.43;65.78;101015.56;5037161;28;20099;-66
2021/01/09 08:59:48;;;;;;;23.80;15.20;;;;;;;10.59;58.76;101023.84;5036435;28;20099;-66
2021/01/09 09:02:34;;;;;;;28.48;14.30;;;;;;;11.62;55.03;101016.75;5036080;28;20132;-66
2021/01/09 09:05:19;;;;;;;21.77;13.98;;;;;;;12.60;51.27;101015.94;5036253;28;20043;-65
2021/01/09 09:08:03;;;;;;;20.17;14.05;;;;;;;13.24;48.24;101017.94;5022118;28;20568;-66
2021/01/09 09:10:48;;;;;;;22.48;14.85;;;;;;;14.14;46.67;101019.88;5036679;28;20111;-66
2021/01/09 09:13:32;;;;;;;32.90;22.98;;;;;;;14.53;44.42;101016.88;5035661;28;20131;-65
2021/01/09 09:16:21;;;;;;;23.88;16.27;;;;;;;14.48;43.94;101023.69;5036518;28;20135;-64
2021/01/09 09:19:10;;;;;;;24.60;16.40;;;;;;;14.61;43.39;101021.47;5036699;28;20079;-66
2021/01/09 09:21:58;;;;;;;28.48;17.58;;;;;;;13.53;44.48;101032.09;5036803;28;20133;-66
2021/01/09 09:24:46;;;;;;;33.97;19.38;;;;;;;12.27;46.87;101046.53;5036453;28;20047;-64
2021/01/09 09:27:31;;;;;;;32.50;18.83;;;;;;;11.12;50.32;101044.22;5035632;28;20505;-66
2021/01/09 09:30:17;;;;;;;27.65;16.52;;;;;;;10.22;52.38;101050.09;5035721;28;20510;-65
2021/01/09 09:33:12;;;;;;;27.05;16.70;;;;;;;9.43;54.87;101051.94;5036539;28;20067;-66
2021/01/09 09:36:06;;;;;;;26.70;16.75;;;;;;;9.42;54.54;101064.44;5035673;28;20041;-66
2021/01/09 09:38:50;;;;;;;;;;;;;;;9.03;56.26;101061.28;5035847;28;20568;-66
2021/01/09 09:41:55;;;;;;;21.80;13.45;;;;;;;8.52;58.68;101071.31;5035515;28;19963;-66
2021/01/09 09:44:44;;;;;;;19.85;12.75;;;;;;;7.69;60.37;101080.88;5035114;28;20044;-65
2021/01/09 09:47:29;;;;;;;21.58;14.23;;;;;;;6.98;63.31;101084.09;5035177;28;20040;-66
2021/01/09 09:50:18;;;;;;;23.30;13.68;;;;;;;6.36;66.39;101076.75;5036530;28;20052;-66
2021/01/09 09:53:05;;;;;;;24.30;13.18;;;;;;;5.97;68.13;101079.28;5035982;28;20095;-66
2021/01/09 09:55:49;;;;;;;20.73;13.45;;;;;;;5.52;71.06;101085.56;5033653;28;20048;-66
2021/01/09 09:58:34;;;;;;;21.50;13.60;;;;;;;5.20;72.54;101086.63;5035911;28;20067;-65
2021/01/09 10:01:22;;;;;;;23.17;13.82;;;;;;;5.18;73.70;101083.22;5035419;28;20052;-65
2021/01/09 10:04:11;;;;;;;21.77;13.48;;;;;;;5.10;73.95;101098.69;5034909;28;20533;-65
2021/01/09 10:06:55;;;;;;;21.83;14.10;;;;;;;5.13;74.24;101082.63;5035057;28;20048;-66
2021/01/09 10:09:39;;;;;;;33.85;20.33;;;;;;;5.16;75.05;101089.53;5035706;28;20098;-65
2021/01/09 10:12:23;;;;;;;26.35;15.98;;;;;;;5.24;76.13;101087.31;5035039;28;20122;-64
2021/01/09 10:15:10;;;;;;;49.55;25.40;;;;;;;5.41;74.96;101088.00;5020774;28;20052;-65
2021/01/09 10:17:55;;;;;;;27.15;15.80;;;;;;;5.34;74.03;101088.47;5006919;28;20099;-65
2021/01/09 10:20:39;;;;;;;55.65;39.13;;;;;;;5.45;74.51;101089.50;5039177;23;20048;-71
2021/01/09 10:23:24;;;;;;;29.85;17.63;;;;;;;5.57;74.73;101094.06;5016055;28;20125;-70
2021/01/09 10:26:08;;;;;;;53.40;32.72;;;;;;;5.56;74.33;101091.50;5014922;28;20045;-71
2021/01/09 10:28:53;;;;;;;57.42;42.05;;;;;;;5.53;74.77;101092.53;5014669;28;20183;-71
2021/01/09 10:31:39;;;;;;;30.88;20.17;;;;;;;5.48;74.84;101089.34;5014911;28;20076;-67
2021/01/09 10:34:22;;;;;;;28.77;18.15;;;;;;;5.14;76.02;101086.97;5014773;28;20127;-70
2021/01/09 10:37:06;;;;;;;33.35;21.83;;;;;;;5.15;76.78;101087.84;5015630;28;20049;-69
2021/01/09 10:39:50;;;;;;;49.40;32.38;;;;;;;4.94;77.84;101089.94;5015562;28;20056;-69
2021/01/09 10:42:34;;;;;;;33.55;21.73;;;;;;;4.81;79.12;101089.91;5014449;28;20095;-69
2021/01/09 10:45:18;;;;;;;37.08;21.77;;;;;;;4.66;80.45;101090.78;5014571;28;20041;-69
2021/01/09 10:48:02;;;;;;;53.03;38.67;;;;;;;4.71;79.99;101086.09;5014429;28;20084;-69
2021/01/09 10:50:46;;;;;;;48.75;31.73;;;;;;;4.94;78.80;101083.81;5015289;28;20136;-67
2021/01/09 10:53:30;;;;;;;52.85;35.13;;;;;;;5.76;77.46;101083.22;5014320;28;20418;-69
2021/01/09 10:56:14;;;;;;;53.45;34.13;;;;;;;6.57;71.73;101073.53;5013905;28;20426;-69
2021/01/09 10:58:58;;;;;;;42.88;28.00;;;;;;;6.89;70.58;101076.75;5014923;28;20064;-70
2021/01/09 11:01:42;;;;;;;48.47;33.17;;;;;;;6.84;71.03;101077.06;5015207;28;20102;-69
2021/01/09 11:04:26;;;;;;;60.10;40.03;;;;;;;6.58;70.48;101080.53;5000183;28;20080;-69
2021/01/09 11:07:10;;;;;;;37.75;22.52;;;;;;;6.50;71.13;101077.56;5014398;28;20473;-70
2021/01/09 11:09:55;;;;;;;41.78;26.50;;;;;;;6.78;71.72;101077.44;5013763;28;20061;-68
2021/01/09 11:12:38;;;;;;;31.15;19.05;;;;;;;7.41;68.15;101072.28;5013933;28;20084;-69
2021/01/09 11:15:22;;;;;;;40.47;28.80;;;;;;;8.05;64.92;101068.53;5014858;28;20052;-70
2021/01/09 11:18:06;;;;;;;29.00;19.00;;;;;;;8.61;62.96;101075.97;5014682;28;20064;-69
2021/01/09 11:20:54;;;;;;;60.97;42.53;;;;;;;8.70;62.12;101069.97;5013396;28;20068;-70
2021/01/09 11:23:41;;;;;;;34.63;23.08;;;;;;;9.25;59.83;101066.66;5013801;28;20219;-69
2021/01/09 11:26:26;;;;;;;36.40;23.20;;;;;;;9.47;58.73;101066.75;4999581;28;20135;-70
2021/01/09 11:29:10;;;;;;;33.28;22.38;;;;;;;9.74;56.72;101060.13;5014310;28;20045;-70
2021/01/09 11:32:01;;;;;;;33.30;23.30;;;;;;;9.70;57.13;101065.81;5013895;28;20049;-70
2021/01/09 11:34:44;;;;;;;27.02;18.20;;;;;;;10.50;55.19;101066.38;5014212;28;20069;-70
2021/01/09 11:37:28;;;;;;;23.98;17.60;;;;;;;12.38;50.68;101065.16;5013577;28;20053;-69
2021/01/09 11:40:12;;;;;;;25.13;18.30;;;;;;;14.34;44.60;101054.56;5013086;28;20521;-70
2021/01/09 11:42:56;;;;;;;24.50;15.57;;;;;;;15.91;41.43;101049.13;5014130;28;20100;-70
2021/01/09 11:45:40;;;;;;;24.77;16.70;;;;;;;17.20;37.91;101036.94;5014368;28;20184;-70
2021/01/09 11:48:24;;;;;;;22.92;16.75;;;;;;;18.09;34.74;101039.34;5014167;28;20049;-70
2021/01/09 11:51:09;;;;;;;23.13;16.15;;;;;;;19.29;33.97;101030.59;5013349;28;20049;-70
2021/01/09 11:53:52;;;;;;;25.27;18.08;;;;;;;20.40;31.95;101031.28;5013972;28;20586;-70
2021/01/09 11:56:36;;;;;;;26.88;20.63;;;;;;;21.27;30.57;101021.03;5013064;28;20056;-69
2021/01/09 11:59:20;;;;;;;24.13;17.00;;;;;;;21.49;29.27;101019.97;4999152;28;20100;-70
2021/01/09 12:02:04;;;;;;;;;;;;;;;21.07;29.41;101016.47;5013671;28;20517;-69
2021/01/09 12:04:48;;;;;;;22.55;17.90;;;;;;;20.09;30.29;101024.41;5000190;28;20044;-69
2021/01/09 12:07:33;;;;;;;22.52;17.33;;;;;;;19.20;31.92;101028.97;5014149;28;20092;-69
2021/01/09 12:10:17;;;;;;;20.20;16.13;;;;;;;18.51;33.11;101027.22;5012922;28;20049;-69
2021/01/09 12:13:02;;;;;;;29.58;22.95;;;;;;;18.43;33.07;101023.69;5013037;28;20100;-70
2021/01/09 12:15:47;;;;;;;103.10;66.28;;;;;;;17.49;33.82;101027.34;5012950;28;20052;-69
2021/01/09 12:18:32;;;;;;;181.60;133.23;;;;;;;16.54;34.41;101031.59;5012556;28;20056;-70
2021/01/09 12:21:16;;;;;;;29.40;23.17;;;;;;;17.10;35.31;101034.38;5012532;28;20450;-70
2021/01/09 12:24:01;;;;;;;22.60;16.80;;;;;;;17.81;33.87;101027.28;5013810;28;20465;-70
2021/01/09 12:26:50;;;;;;;19.27;14.02;;;;;;;18.48;32.36;101016.75;5012810;28;20053;-70
2021/01/09 12:29:34;;;;;;;21.80;17.27;;;;;;;18.07;33.15;101022.50;5013908;28;20103;-70
2021/01/09 12:32:18;;;;;;;26.30;21.17;;;;;;;16.64;35.70;101031.44;5013640;28;20092;-69
2021/01/09 12:35:05;;;;;;;29.00;23.00;;;;;;;16.93;36.08;101031.84;5013388;28;20052;-69